Time;durP1;ratioP1;P1;durP2;ratioP2;P2;SDS_P1;SDS_P2;PMS_P1;PMS_P2;Temp;Humidity;BMP_temperature;BMP_pressure;BME280_temperature;BME280_humidity;BME280_pressure;Samples;Min_cycle;Max_cycle;Signal;HPM_P1;HPM_P2
2022/08/23 00:01:43;;;;;;;11.50;8.90;;;;;;;24.58;60.73;94411.75;5061796;28;20009;-55
2022/08/23 00:04:12;;;;;;;11.65;9.48;;;;;;;24.62;60.75;94417.59;5031854;28;20037;-55
2022/08/23 00:06:37;;;;;;;12.43;9.60;;;;;;;24.59;60.52;94424.16;5046041;28;20029;-54
2022/08/23 00:09:03;;;;;;;12.43;9.38;;;;;;;24.57;60.64;94423.94;5045672;28;20534;-55
2022/08/23 00:11:41;;;;;;;14.05;10.10;;;;;;;24.45;60.97;94414.53;5061607;28;20037;-55
2022/08/23 00:14:37;;;;;;;17.98;9.50;;;;;;;24.51;61.08;94426.03;5061562;28;20125;-55
2022/08/23 00:17:03;;;;;;;13.60;9.75;;;;;;;24.56;61.02;94427.94;5048058;28;20044;-55
2022/08/23 00:19:29;;;;;;;12.45;9.25;;;;;;;24.49;61.28;94426.59;5062424;28;20025;-55
2022/08/23 00:21:55;;;;;;;12.73;9.35;;;;;;;24.43;60.97;94406.88;5061601;28;20137;-55
2022/08/23 00:24:21;;;;;;;12.23;9.57;;;;;;;24.49;61.29;94414.94;5046831;28;20082;-54
2022/08/23 00:26:57;;;;;;;13.80;9.48;;;;;;;24.57;61.03;94416.50;5030007;28;20028;-55
2022/08/23 00:29:24;;;;;;;11.57;8.95;;;;;;;24.55;61.41;94423.72;5058980;28;20503;-54
2022/08/23 00:31:50;;;;;;;13.10;9.18;;;;;;;24.55;61.02;94412.81;5061214;28;20036;-54
2022/08/23 00:34:16;;;;;;;12.60;8.85;;;;;;;24.50;60.85;94417.13;5047871;28;20049;-52
2022/08/23 00:36:43;;;;;;;12.90;9.63;;;;;;;24.57;60.67;94421.19;5059296;28;20689;-55
2022/08/23 00:39:10;;;;;;;16.25;9.73;;;;;;;24.55;60.70;94429.19;5064636;28;20049;-55
2022/08/23 00:41:35;;;;;;;11.05;8.25;;;;;;;24.61;60.54;94424.34;5065969;28;20036;-55
2022/08/23 00:49:36;;;;;;;13.40;9.18;;;;;;;24.54;60.56;94422.25;5060700;28;20113;-54
2022/08/23 00:52:08;;;;;;;12.32;9.25;;;;;;;24.49;60.75;94420.41;5059792;28;20052;-55
2022/08/23 00:54:34;;;;;;;11.02;8.98;;;;;;;24.37;60.60;94402.81;5062908;28;20024;-55
2022/08/23 00:57:02;;;;;;;12.55;9.23;;;;;;;24.53;60.61;94420.81;5050488;28;20154;-55
2022/08/23 00:59:27;;;;;;;13.07;8.77;;;;;;;24.49;60.46;94420.41;5030448;28;20260;-55
2022/08/23 01:01:53;;;;;;;12.23;9.10;;;;;;;24.36;61.02;94417.69;5057077;28;20574;-55
2022/08/23 01:04:18;;;;;;;12.60;9.10;;;;;;;24.56;60.37;94425.22;5056984;28;20049;-55
2022/08/23 01:06:50;;;;;;;12.05;9.05;;;;;;;24.61;60.48;94421.63;5039253;28;20471;-54
2022/08/23 01:09:17;;;;;;;12.02;9.38;;;;;;;24.44;60.89;94418.53;5042968;28;20049;-54
2022/08/23 01:12:05;;;;;;;11.02;9.00;;;;;;;24.56;60.48;94419.75;5063577;28;20063;-53
2022/08/23 01:14:38;;;;;;;12.20;10.10;;;;;;;24.49;60.95;94425.84;5036271;28;20094;-55
2022/08/23 01:17:23;;;;;;;12.57;9.07;;;;;;;24.50;61.23;94427.34;5064590;28;20134;-55
2022/08/23 01:19:57;;;;;;;12.75;9.57;;;;;;;24.57;60.63;94416.50;5055921;28;20036;-56
2022/08/23 01:22:42;;;;;;;15.55;10.95;;;;;;;24.41;60.46;94393.03;5018957;28;20535;-53
2022/08/23 01:25:10;;;;;;;16.15;10.68;;;;;;;24.46;61.04;94416.00;5037973;28;20099;-53
2022/08/23 01:27:36;;;;;;;16.48;11.32;;;;;;;24.58;60.98;94439.06;5028037;28;20055;-53
2022/08/23 01:30:04;;;;;;;16.90;11.68;;;;;;;24.53;61.16;94431.72;5059941;28;20062;-55
2022/08/23 01:32:31;;;;;;;16.23;11.20;;;;;;;24.56;61.07;94430.66;5062139;28;20536;-53
2022/08/23 01:34:57;;;;;;;15.57;11.18;;;;;;;24.47;61.50;94428.38;5061613;28;20037;-53
2022/08/23 01:37:22;;;;;;;16.23;10.40;;;;;;;24.37;61.78;94424.63;5060412;28;20032;-54
2022/08/23 01:39:48;;;;;;;17.05;11.68;;;;;;;24.37;61.85;94419.19;5044631;28;20032;-52
2022/08/23 01:42:13;;;;;;;16.33;11.48;;;;;;;24.45;61.49;94425.44;5060590;28;20063;-52
2022/08/23 01:44:39;;;;;;;14.48;10.70;;;;;;;24.52;61.28;94438.44;5060133;28;20514;-52
2022/08/23 01:47:05;;;;;;;15.85;11.80;;;;;;;24.49;61.60;94436.78;5060567;28;20212;-54
2022/08/23 01:49:32;;;;;;;16.30;11.15;;;;;;;24.46;61.45;94432.38;5060121;28;20190;-54
2022/08/23 01:51:57;;;;;;;13.90;10.18;;;;;;;24.56;61.27;94447.06;5059625;28;20044;-53
2022/08/23 01:54:23;;;;;;;13.63;10.18;;;;;;;24.51;61.45;94431.50;5061108;28;20067;-51
2022/08/23 01:56:48;;;;;;;13.43;10.13;;;;;;;24.52;60.92;94425.53;5060086;28;20446;-52
2022/08/23 01:59:14;;;;;;;12.70;9.35;;;;;;;24.46;61.05;94421.47;5060341;28;20233;-55
2022/08/23 02:01:39;;;;;;;11.85;9.82;;;;;;;24.49;60.97;94442.22;5060539;28;20041;-54
2022/08/23 02:04:04;;;;;;;15.55;9.70;;;;;;;24.35;61.59;94421.72;5045142;28;20062;-54
2022/08/23 02:06:30;;;;;;;13.20;9.48;;;;;;;24.51;61.02;94423.31;5060319;28;20055;-53
2022/08/23 02:09:02;;;;;;;12.07;9.43;;;;;;;24.48;60.92;94429.84;5060791;28;20024;-55
2022/08/23 02:11:34;;;;;;;11.25;8.80;;;;;;;24.32;60.60;94406.38;5060012;28;20040;-51
2022/08/23 02:14:01;;;;;;;12.77;9.15;;;;;;;24.49;61.04;94426.59;5060194;28;20047;-52
2022/08/23 02:16:32;;;;;;;15.60;9.80;;;;;;;24.19;60.94;94387.28;5061211;28;20044;-55
2022/08/23 02:18:58;;;;;;;13.27;8.90;;;;;;;24.35;61.32;94427.16;5044004;28;20025;-52
2022/08/23 02:21:24;;;;;;;12.45;9.13;;;;;;;24.37;60.99;94413.72;5045685;28;20040;-54
2022/08/23 02:23:52;;;;;;;12.27;9.07;;;;;;;24.44;61.27;94418.53;5059918;28;20156;-55
2022/08/23 02:26:18;;;;;;;13.77;9.45;;;;;;;24.24;61.09;94394.63;5053347;28;20580;-55
2022/08/23 02:28:43;;;;;;;12.95;9.38;;;;;;;24.42;61.02;94410.13;5058457;28;20032;-54
2022/08/23 02:31:09;;;;;;;11.68;9.05;;;;;;;24.44;60.93;94408.34;5059654;28;20090;-55
2022/08/23 02:33:35;;;;;;;12.88;9.07;;;;;;;24.52;60.71;94409.13;5059861;28;20028;-52
2022/08/23 02:36:01;;;;;;;11.82;8.60;;;;;;;24.49;60.66;94404.03;5060321;28;20041;-54
2022/08/23 02:38:27;;;;;;;11.93;8.60;;;;;;;24.24;60.68;94372.78;5049988;28;20144;-53
2022/08/23 02:40:52;;;;;;;10.98;8.68;;;;;;;24.49;60.33;94414.94;5063895;28;20279;-55
2022/08/23 02:43:18;;;;;;;12.85;9.63;;;;;;;24.47;60.48;94412.00;5063405;28;20067;-54
2022/08/23 02:45:44;;;;;;;10.77;8.30;;;;;;;24.32;60.27;94417.28;5064298;28;20056;-55
2022/08/23 02:48:09;;;;;;;10.88;8.05;;;;;;;24.33;60.34;94416.03;5063233;28;20075;-53
2022/08/23 02:50:35;;;;;;;10.40;7.97;;;;;;;24.34;59.79;94412.78;5063333;28;20040;-55
2022/08/23 02:53:01;;;;;;;9.70;8.00;;;;;;;24.37;59.59;94419.91;5062740;28;20029;-54
2022/08/23 02:55:26;;;;;;;10.88;7.57;;;;;;;24.33;59.55;94415.31;5063834;28;20053;-54
2022/08/23 02:57:52;;;;;;;8.85;7.45;;;;;;;24.46;58.78;94410.53;5062662;28;20532;-55
2022/08/23 03:00:17;;;;;;;9.32;7.35;;;;;;;24.46;58.86;94416.00;5064603;28;20067;-55
2022/08/23 03:02:43;;;;;;;9.77;6.63;;;;;;;24.41;58.87;94403.22;5062905;28;20052;-54
2022/08/23 03:05:09;;;;;;;8.52;6.85;;;;;;;24.44;57.96;94413.06;5063325;28;20059;-52
2022/08/23 03:07:34;;;;;;;9.10;6.53;;;;;;;24.42;58.08;94416.34;5062789;28;20102;-54
2022/08/23 03:09:59;;;;;;;10.07;6.82;;;;;;;24.46;57.83;94405.81;5063901;28;20040;-54
2022/08/23 03:12:26;;;;;;;7.72;6.72;;;;;;;24.48;57.65;94405.28;5062753;28;20160;-54
2022/08/23 03:14:51;;;;;;;7.90;6.43;;;;;;;24.39;57.66;94405.72;5042730;28;20036;-54
2022/08/23 03:17:17;;;;;;;6.72;5.70;;;;;;;24.40;57.94;94399.00;5064199;28;20032;-53
2022/08/23 03:19:43;;;;;;;7.53;5.78;;;;;;;24.36;57.65;94404.06;5063218;28;20044;-54
2022/08/23 03:22:08;;;;;;;7.82;5.70;;;;;;;24.41;57.73;94403.94;5062653;28;20686;-52
2022/08/23 03:24:35;;;;;;;8.48;5.93;;;;;;;24.42;57.29;94393.75;5056662;28;20055;-55
2022/08/23 03:27:01;;;;;;;7.40;5.30;;;;;;;24.37;57.61;94394.63;5049950;28;20675;-54
2022/08/23 03:29:26;;;;;;;6.93;5.82;;;;;;;24.33;57.84;94396.94;5063184;28;20037;-55
2022/08/23 03:31:52;;;;;;;8.77;5.57;;;;;;;24.22;57.58;94386.25;5062336;28;20045;-55
2022/08/23 03:34:17;;;;;;;7.47;5.03;;;;;;;24.17;57.61;94395.28;5063065;28;20037;-55
2022/08/23 03:36:43;;;;;;;7.38;5.88;;;;;;;24.31;57.99;94404.88;5063127;28;20021;-55
2022/08/23 03:39:08;;;;;;;9.18;6.15;;;;;;;24.31;57.79;94410.34;5062770;28;20119;-52
2022/08/23 03:41:33;;;;;;;7.57;5.45;;;;;;;24.36;58.10;94412.25;5062231;28;20037;-55
2022/08/23 03:43:59;;;;;;;6.93;5.28;;;;;;;24.42;57.73;94421.03;5063358;28;20025;-55
2022/08/23 03:46:24;;;;;;;8.68;5.80;;;;;;;24.31;57.85;94434.91;5062327;28;20055;-55
2022/08/23 03:48:54;;;;;;;7.53;5.95;;;;;;;24.34;58.14;94435.88;5062576;28;20044;-54
2022/08/23 03:51:20;;;;;;;6.90;5.70;;;;;;;24.43;57.71;94427.97;5062174;28;20043;-54
2022/08/23 03:53:46;;;;;;;8.18;5.22;;;;;;;24.29;58.18;94440.16;5062464;28;20041;-55
2022/08/23 03:56:36;;;;;;;10.35;5.53;;;;;;;24.16;58.67;94448.38;5061217;28;20040;-54
2022/08/23 03:59:06;;;;;;;7.65;6.00;;;;;;;24.09;59.17;94454.47;5059127;28;20041;-54
2022/08/23 04:01:31;;;;;;;7.28;5.70;;;;;;;24.09;59.29;94459.91;5061021;28;20067;-55
2022/08/23 04:03:59;;;;;;;7.43;5.82;;;;;;;24.21;59.11;94463.88;5062576;28;20407;-55
2022/08/23 04:06:28;;;;;;;9.55;6.03;;;;;;;24.06;59.10;94452.06;5061930;28;20068;-55
2022/08/23 04:08:53;;;;;;;8.13;5.90;;;;;;;24.26;59.24;94468.50;5062425;28;20503;-55
2022/08/23 04:11:20;;;;;;;8.40;6.03;;;;;;;24.13;59.40;94471.25;5061877;28;20090;-55
2022/08/23 04:13:46;;;;;;;8.00;6.10;;;;;;;24.21;59.39;94472.06;5061967;28;20041;-55
2022/08/23 04:16:11;;;;;;;9.55;6.63;;;;;;;24.35;59.18;94487.22;5061513;28;20070;-56
2022/08/23 04:18:37;;;;;;;8.45;6.22;;;;;;;24.31;59.17;94486.75;5064495;28;20054;-55
2022/08/23 04:21:05;;;;;;;9.50;6.63;;;;;;;24.32;58.67;94474.59;5062144;28;20710;-55
2022/08/23 04:23:30;;;;;;;10.70;7.13;;;;;;;24.39;59.01;94487.59;5060685;28;20036;-54
2022/08/23 04:25:56;;;;;;;9.27;6.97;;;;;;;24.39;59.06;94487.59;5054215;28;20690;-54
2022/08/23 04:28:22;;;;;;;9.85;7.47;;;;;;;24.40;58.88;94484.34;5058779;28;20820;-55
2022/08/23 04:30:47;;;;;;;9.55;7.32;;;;;;;24.42;59.15;94500.19;5061408;28;20671;-54
2022/08/23 04:33:12;;;;;;;10.18;7.10;;;;;;;24.19;59.50;94474.59;5053307;28;20127;-53
2022/08/23 04:35:40;;;;;;;10.98;7.43;;;;;;;24.40;59.64;94489.09;5061054;28;20690;-54
2022/08/23 04:38:05;;;;;;;10.95;8.07;;;;;;;24.42;59.95;94498.22;5060473;28;20064;-55
2022/08/23 04:43:15;;;;;;;12.60;8.73;;;;;;;24.65;59.29;94503.91;5060558;28;20162;-52
2022/08/23 04:45:41;;;;;;;13.93;8.55;;;;;;;24.62;59.36;94504.97;5061362;28;20383;-54
2022/08/23 04:48:07;;;;;;;14.85;8.43;;;;;;;24.80;58.80;94504.06;5060208;28;20037;-52
2022/08/23 04:50:32;;;;;;;11.43;8.50;;;;;;;24.83;58.95;94499.03;5048560;28;20454;-54
2022/08/23 04:52:58;;;;;;;10.90;8.48;;;;;;;24.89;58.41;94504.38;5060481;28;20457;-54
2022/08/23 04:55:24;;;;;;;12.13;8.75;;;;;;;25.03;58.27;94506.53;5056070;28;20479;-53
2022/08/23 04:57:49;;;;;;;11.65;9.15;;;;;;;25.05;58.08;94509.47;5060498;28;20024;-64
2022/08/23 05:00:15;;;;;;;12.85;9.40;;;;;;;25.03;57.81;94501.06;5060629;28;20044;-55
2022/08/23 05:02:41;;;;;;;13.73;9.35;;;;;;;25.16;57.71;94514.69;5060889;28;20037;-55
2022/08/23 05:05:07;;;;;;;13.23;9.50;;;;;;;25.25;57.98;94511.47;5053736;28;20067;-55
2022/08/23 05:07:34;;;;;;;15.40;10.50;;;;;;;25.31;57.56;94514.81;5060001;28;20048;-54
2022/08/23 05:09:59;;;;;;;16.17;10.40;;;;;;;25.32;57.88;94527.22;5061136;28;20056;-54
2022/08/23 05:12:25;;;;;;;15.43;10.63;;;;;;;25.40;57.81;94528.03;5060808;28;20032;-55
2022/08/23 05:14:50;;;;;;;14.30;11.40;;;;;;;25.45;57.19;94518.94;5060541;28;20706;-61
2022/08/23 05:17:16;;;;;;;16.92;12.18;;;;;;;25.48;57.07;94528.81;5061463;28;20656;-52
2022/08/23 05:19:41;;;;;;;18.75;12.25;;;;;;;25.44;57.29;94529.16;5061012;28;20591;-51
2022/08/23 05:22:07;;;;;;;17.52;13.40;;;;;;;25.55;56.78;94539.09;5060411;28;20031;-52
2022/08/23 05:24:32;;;;;;;17.80;13.00;;;;;;;25.44;56.80;94536.59;5055785;28;20025;-51
2022/08/23 05:26:58;;;;;;;18.80;13.73;;;;;;;25.48;56.89;94537.00;5059427;28;20684;-51
2022/08/23 05:29:23;;;;;;;21.38;14.35;;;;;;;25.46;56.95;94532.06;5060723;28;20394;-53
2022/08/23 05:31:48;;;;;;;18.48;13.82;;;;;;;25.59;58.15;94544.94;5059976;28;20040;-52
2022/08/23 05:34:14;;;;;;;19.45;13.57;;;;;;;25.45;57.04;94513.47;5060755;28;20109;-52
2022/08/23 05:36:39;;;;;;;19.67;14.23;;;;;;;25.67;56.73;94543.75;5059997;28;20568;-53
2022/08/23 05:39:05;;;;;;;17.02;13.30;;;;;;;25.71;56.31;94543.41;5060317;28;20040;-52
2022/08/23 05:41:31;;;;;;;16.10;13.20;;;;;;;25.74;56.36;94545.09;5045194;28;20047;-52
2022/08/23 05:43:56;;;;;;;18.40;13.07;;;;;;;25.79;56.76;94541.50;5061256;28;20056;-52
2022/08/23 05:46:22;;;;;;;18.60;12.85;;;;;;;25.88;56.41;94539.72;5059558;28;20627;-51
2022/08/23 05:48:49;;;;;;;20.92;13.80;;;;;;;25.73;56.30;94510.81;5061588;28;20040;-53
2022/08/23 05:51:21;;;;;;;17.70;13.60;;;;;;;25.93;56.10;94530.66;5046956;28;20056;-52
2022/08/23 05:53:47;;;;;;;19.35;13.30;;;;;;;25.87;56.10;94538.28;5056063;28;20513;-52
2022/08/23 05:56:21;;;;;;;18.90;12.52;;;;;;;25.92;56.01;94534.66;5059688;28;20048;-52
2022/08/23 05:58:47;;;;;;;16.55;12.18;;;;;;;25.89;56.19;94546.66;5059032;28;20060;-53
2022/08/23 06:01:13;;;;;;;19.52;12.45;;;;;;;25.91;55.73;94541.38;5043000;28;20113;-54
2022/08/23 06:03:39;;;;;;;16.02;11.38;;;;;;;26.07;55.20;94545.69;5045421;28;20486;-53
2022/08/23 06:06:05;;;;;;;16.55;11.27;;;;;;;26.05;55.07;94553.72;5059469;28;20086;-54
2022/08/23 06:08:31;;;;;;;14.73;11.38;;;;;;;26.10;54.78;94572.00;5059593;28;20028;-52
2022/08/23 06:11:04;;;;;;;14.48;10.75;;;;;;;26.15;54.84;94562.88;5056953;28;20735;-54
2022/08/23 06:13:29;;;;;;;16.02;11.52;;;;;;;26.02;55.57;94560.25;5049422;28;20182;-53
2022/08/23 06:15:56;;;;;;;17.23;12.50;;;;;;;26.19;54.64;94546.09;5063404;28;20115;-53
2022/08/23 06:18:22;;;;;;;18.58;12.20;;;;;;;26.28;54.64;94554.59;5051716;28;20445;-52
2022/08/23 06:20:47;;;;;;;16.23;11.63;;;;;;;26.27;54.67;94550.38;5063424;28;20532;-53
2022/08/23 06:23:13;;;;;;;16.88;11.63;;;;;;;26.30;54.57;94565.75;5063095;28;20051;-52
2022/08/23 06:25:39;;;;;;;17.02;11.13;;;;;;;26.27;54.07;94564.06;5058750;28;20644;-53
2022/08/23 06:28:05;;;;;;;15.90;9.98;;;;;;;26.23;54.47;94571.16;5061342;28;20029;-54
2022/08/23 06:30:30;;;;;;;12.75;10.80;;;;;;;26.18;54.09;94578.22;5061758;28;20473;-54
2022/08/23 06:32:56;;;;;;;14.43;10.52;;;;;;;26.09;54.50;94578.00;5061170;28;20060;-51
2022/08/23 06:35:22;;;;;;;14.65;10.82;;;;;;;26.04;55.14;94571.41;5063668;28;20052;-53
2022/08/23 06:37:48;;;;;;;12.65;9.77;;;;;;;25.91;55.26;94576.22;5063412;28;20039;-54
2022/08/23 06:40:13;;;;;;;14.50;10.68;;;;;;;25.91;54.95;94571.47;5063900;28;20033;-53
2022/08/23 06:42:39;;;;;;;18.15;10.63;;;;;;;25.89;55.35;94571.28;5063244;28;20032;-54
2022/08/23 06:45:05;;;;;;;13.82;11.00;;;;;;;25.72;55.89;94581.16;5061165;28;20392;-54
2022/08/23 06:47:30;;;;;;;13.75;10.40;;;;;;;25.83;55.54;94578.91;5062025;28;20044;-55
2022/08/23 06:49:56;;;;;;;13.73;10.68;;;;;;;25.79;55.62;94585.25;5062813;28;20047;-52
2022/08/23 06:52:23;;;;;;;15.90;10.60;;;;;;;25.78;55.51;94584.50;5044110;28;20499;-53
2022/08/23 06:54:48;;;;;;;13.13;9.73;;;;;;;25.78;55.64;94578.31;5063470;28;20029;-53
2022/08/23 06:57:14;;;;;;;15.98;9.93;;;;;;;25.79;55.56;94596.19;5062164;28;20408;-54
2022/08/23 06:59:39;;;;;;;11.93;9.00;;;;;;;25.72;55.50;94585.91;5062100;28;20025;-54
2022/08/23 07:02:06;;;;;;;12.27;9.63;;;;;;;25.80;55.11;94590.91;5061899;28;20095;-54
2022/08/23 07:04:37;;;;;;;13.00;9.52;;;;;;;25.64;55.71;94579.63;5062702;28;20135;-53
2022/08/23 07:07:03;;;;;;;15.52;10.18;;;;;;;25.75;55.52;94582.13;5037053;28;20036;-53
2022/08/23 07:09:29;;;;;;;14.32;9.95;;;;;;;25.70;55.68;94588.47;5063148;28;20012;-54
2022/08/23 07:11:55;;;;;;;13.75;10.10;;;;;;;25.72;55.81;94585.91;5061854;28;20067;-53
2022/08/23 07:14:21;;;;;;;12.70;9.88;;;;;;;25.66;55.95;94594.25;5046276;28;20048;-53
2022/08/23 07:16:55;;;;;;;13.35;10.30;;;;;;;25.67;56.02;94589.53;5044600;28;20041;-54
2022/08/23 07:19:22;;;;;;;14.35;10.13;;;;;;;25.60;56.31;94587.44;5045093;28;20041;-52
2022/08/23 07:21:48;;;;;;;14.27;10.80;;;;;;;25.62;56.32;94588.38;5061477;28;20016;-52
2022/08/23 07:24:14;;;;;;;15.43;10.48;;;;;;;25.61;56.68;94597.09;5062361;28;20127;-50
2022/08/23 07:26:40;;;;;;;13.93;10.75;;;;;;;25.58;56.94;94587.25;5045723;28;20037;-52
2022/08/23 07:29:06;;;;;;;15.52;10.73;;;;;;;25.56;56.46;94584.28;5044070;28;20029;-50
2022/08/23 07:31:33;;;;;;;13.15;10.27;;;;;;;25.51;56.60;94587.91;5061452;28;20238;-51
2022/08/23 07:34:00;;;;;;;14.20;10.60;;;;;;;25.55;56.49;94593.78;5061580;28;20040;-51
2022/08/23 07:36:26;;;;;;;15.80;10.50;;;;;;;25.51;56.37;94587.91;5062211;28;20023;-52
2022/08/23 07:38:51;;;;;;;14.65;10.48;;;;;;;25.49;56.21;94601.38;5060247;28;20033;-53
2022/08/23 07:41:17;;;;;;;15.02;9.70;;;;;;;25.52;56.20;94594.84;5061133;28;20090;-52
2022/08/23 07:43:43;;;;;;;16.60;11.45;;;;;;;25.51;56.12;94588.63;5062264;28;20118;-52
2022/08/23 07:46:08;;;;;;;14.18;10.48;;;;;;;25.52;56.21;94594.84;5062202;28;20105;-51
2022/08/23 07:48:34;;;;;;;15.88;10.98;;;;;;;25.50;56.31;94591.88;5044544;28;20077;-51
2022/08/23 07:51:01;;;;;;;15.02;10.25;;;;;;;25.50;56.62;94592.63;5058929;28;20039;-52
2022/08/23 07:53:27;;;;;;;14.88;10.70;;;;;;;25.50;56.27;94592.63;5059874;28;20068;-50
2022/08/23 07:55:53;;;;;;;17.15;10.82;;;;;;;25.55;55.88;94599.25;5061751;28;20215;-50
2022/08/23 07:58:19;;;;;;;14.13;10.80;;;;;;;25.54;55.78;94598.50;5058954;28;20601;-52
2022/08/23 08:00:45;;;;;;;12.50;10.20;;;;;;;25.42;56.25;94585.63;5061623;28;20025;-51
2022/08/23 08:03:11;;;;;;;14.13;11.05;;;;;;;25.51;56.09;94609.75;5028263;28;20043;-52
2022/08/23 08:05:37;;;;;;;14.60;11.05;;;;;;;25.39;56.00;94594.88;5044016;28;20056;-50
2022/08/23 08:08:03;;;;;;;14.25;10.93;;;;;;;25.45;56.11;94611.91;5059921;28;20139;-51
2022/08/23 08:10:29;;;;;;;13.60;11.13;;;;;;;25.51;56.06;94610.50;5047716;28;20072;-51
2022/08/23 08:12:54;;;;;;;16.85;11.07;;;;;;;25.50;55.73;94613.75;5061378;28;20410;-51
2022/08/23 08:15:21;;;;;;;16.98;11.55;;;;;;;25.49;55.96;94606.84;5060923;28;20032;-52
2022/08/23 08:17:47;;;;;;;17.88;11.73;;;;;;;25.53;55.56;94618.16;5060092;28;20040;-52
2022/08/23 08:20:14;;;;;;;18.63;11.68;;;;;;;25.46;55.81;94618.84;5060501;28;20041;-51
2022/08/23 08:22:39;;;;;;;18.85;11.43;;;;;;;25.52;56.28;94622.19;5061125;28;20217;-51
2022/08/23 08:25:05;;;;;;;15.77;11.75;;;;;;;25.50;56.12;94624.69;5048572;28;20118;-53
2022/08/23 08:27:31;;;;;;;14.32;11.20;;;;;;;25.45;56.30;94622.84;5061514;28;20062;-51
2022/08/23 08:29:56;;;;;;;14.15;11.48;;;;;;;25.53;56.18;94618.16;5062218;28;20526;-51
2022/08/23 08:32:22;;;;;;;16.25;11.18;;;;;;;25.59;55.62;94618.75;5060677;28;20044;-51
2022/08/23 08:34:47;;;;;;;16.05;11.95;;;;;;;25.56;55.96;94617.09;5059862;28;20032;-51
2022/08/23 08:37:13;;;;;;;16.23;11.65;;;;;;;25.57;55.95;94624.78;5044127;28;20044;-51
2022/08/23 08:39:44;;;;;;;16.05;11.52;;;;;;;25.58;55.45;94620.06;5062588;28;20415;-51
2022/08/23 08:42:35;;;;;;;13.80;10.75;;;;;;;25.60;55.89;94628.44;5042372;28;20029;-51
2022/08/23 08:45:10;;;;;;;16.80;11.73;;;;;;;25.54;55.88;94619.63;5060438;28;20045;-51
2022/08/23 08:47:35;;;;;;;15.80;11.05;;;;;;;25.59;55.60;94611.31;5020947;28;20066;-52
2022/08/23 08:50:07;;;;;;;17.25;11.43;;;;;;;25.62;55.88;94609.50;5059170;28;20040;-52
2022/08/23 08:52:36;;;;;;;14.60;11.85;;;;;;;25.61;55.69;94619.00;5059914;28;20041;-51
2022/08/23 08:55:05;;;;;;;14.15;11.13;;;;;;;25.60;55.90;94614.78;5045320;28;20032;-52
2022/08/23 08:57:35;;;;;;;14.38;11.38;;;;;;;25.55;56.10;94599.25;5061648;28;20040;-51
2022/08/23 09:00:07;;;;;;;15.77;11.95;;;;;;;25.61;55.88;94603.31;5045421;28;20121;-51
2022/08/23 09:02:33;;;;;;;15.70;11.70;;;;;;;25.65;55.82;94603.00;5058062;28;20133;-51
2022/08/23 09:05:00;;;;;;;14.95;11.60;;;;;;;25.41;56.01;94568.50;5060384;28;20569;-51
2022/08/23 09:07:35;;;;;;;17.55;11.55;;;;;;;25.59;56.22;94594.16;5042172;28;20037;-51
2022/08/23 09:10:37;;;;;;;17.35;12.48;;;;;;;25.67;56.03;94584.06;5059529;28;20052;-53
2022/08/23 09:15:55;;;;;;;16.77;12.32;;;;;;;25.73;56.16;94576.47;5101327;22;20059;-54
2022/08/23 09:18:23;;;;;;;15.50;11.93;;;;;;;25.78;56.26;94583.78;5063847;28;20592;-52
2022/08/23 09:20:50;;;;;;;13.82;11.43;;;;;;;25.81;56.19;94589.66;5073179;28;20036;-55
2022/08/23 09:23:48;;;;;;;15.63;11.15;;;;;;;25.87;55.26;94576.56;5041371;28;20055;-53
2022/08/23 09:26:25;;;;;;;13.77;11.25;;;;;;;25.97;54.92;94574.81;5037765;28;20071;-52
2022/08/23 09:28:52;;;;;;;16.02;10.80;;;;;;;26.12;54.55;94585.84;5084144;28;20055;-53
2022/08/23 09:31:38;;;;;;;15.75;11.07;;;;;;;26.16;54.92;94591.72;5078031;28;20043;-54
2022/08/23 09:34:04;;;;;;;13.65;10.80;;;;;;;26.27;54.66;94591.44;5082288;28;20050;-54
2022/08/23 09:36:39;;;;;;;13.70;11.43;;;;;;;26.40;55.04;94585.88;5083912;28;20553;-55
2022/08/23 09:39:07;;;;;;;14.80;11.55;;;;;;;26.44;54.40;94578.78;5083767;28;20066;-54
2022/08/23 09:41:38;;;;;;;15.30;11.73;;;;;;;26.52;54.80;94578.84;5085795;28;20409;-54
2022/08/23 09:44:08;;;;;;;13.48;10.88;;;;;;;26.68;54.08;94577.63;5083211;28;20062;-54
2022/08/23 09:46:37;;;;;;;14.98;10.88;;;;;;;26.76;53.79;94575.66;5079276;28;20036;-54
2022/08/23 09:49:21;;;;;;;;;;;;;;;26.75;52.72;94577.66;5084538;28;20024;-54
2022/08/23 09:51:47;;;;;;;14.88;11.00;;;;;;;26.78;52.96;94582.78;5078170;28;19916;-54
2022/08/23 09:54:18;;;;;;;18.83;11.38;;;;;;;26.93;52.48;94579.41;5076141;28;20028;-53
2022/08/23 09:56:44;;;;;;;15.32;11.15;;;;;;;26.92;52.35;94595.13;5068902;28;20039;-53
2022/08/23 09:59:21;;;;;;;12.52;10.88;;;;;;;27.02;52.30;94587.81;5064811;28;20032;-53
2022/08/23 10:01:47;;;;;;;15.05;11.13;;;;;;;26.86;51.26;94553.41;5082674;28;20044;-53
2022/08/23 10:04:21;;;;;;;16.95;11.10;;;;;;;27.12;51.23;94586.03;5059751;28;20036;-54
2022/08/23 10:06:47;;;;;;;12.75;10.02;;;;;;;27.22;51.16;94578.75;5095777;28;20081;-54
2022/08/23 10:09:22;;;;;;;13.98;10.77;;;;;;;27.31;50.27;94580.97;5097928;28;20509;-54
2022/08/23 10:11:47;;;;;;;14.10;10.48;;;;;;;27.44;50.39;94578.06;5081682;28;20467;-53
2022/08/23 10:14:16;;;;;;;13.80;10.43;;;;;;;27.41;49.71;94568.94;5080478;28;20045;-53
2022/08/23 10:17:07;;;;;;;14.88;9.85;;;;;;;27.55;49.69;94577.72;5086786;28;20084;-53
2022/08/23 10:19:47;;;;;;;10.75;9.30;;;;;;;27.53;48.78;94580.31;5088649;28;20040;-53
2022/08/23 10:22:23;;;;;;;11.65;9.07;;;;;;;27.66;49.02;94577.41;5084453;28;20063;-54
2022/08/23 10:25:03;;;;;;;10.88;9.02;;;;;;;27.73;49.35;94578.13;5087428;28;20019;-54
2022/08/23 10:30:56;;;;;;;11.95;9.70;;;;;;;27.68;49.36;94574.81;5082931;28;20548;-54
2022/08/23 10:33:53;;;;;;;10.55;8.55;;;;;;;27.74;49.02;94568.63;5079116;28;20038;-54
2022/08/23 10:36:25;;;;;;;10.65;8.60;;;;;;;27.70;48.88;94575.00;5078275;28;20044;-54
2022/08/23 10:38:59;;;;;;;9.98;8.25;;;;;;;27.61;49.30;94570.81;5082594;28;20585;-54
2022/08/23 10:42:01;;;;;;;11.10;8.52;;;;;;;27.62;49.43;94566.78;5084893;28;20545;-53
2022/08/23 10:44:39;;;;;;;12.55;8.98;;;;;;;27.65;49.48;94559.47;5082951;28;20048;-54
2022/08/23 10:47:26;;;;;;;11.38;8.30;;;;;;;27.51;48.92;94563.66;5082830;28;20128;-54
2022/08/23 10:49:52;;;;;;;10.07;8.10;;;;;;;27.47;48.88;94555.78;5083068;28;20471;-55
2022/08/23 10:52:22;;;;;;;9.55;7.65;;;;;;;27.51;47.92;94563.66;5084307;28;20040;-55
2022/08/23 10:55:15;;;;;;;10.13;7.63;;;;;;;26.94;48.59;94488.41;5085986;28;20024;-54
2022/08/23 10:57:42;;;;;;;9.48;7.75;;;;;;;27.42;48.24;94558.69;5067096;28;20499;-54
2022/08/23 11:00:14;;;;;;;10.98;8.20;;;;;;;27.43;48.40;94560.16;5061913;28;20078;-54
2022/08/23 11:02:49;;;;;;;10.00;8.27;;;;;;;27.45;48.56;94552.09;5060410;28;20044;-52
2022/08/23 11:05:27;;;;;;;11.55;7.80;;;;;;;27.44;48.83;94564.34;5063511;28;20128;-55
2022/08/23 11:07:59;;;;;;;11.18;8.10;;;;;;;27.39;49.36;94559.78;5079314;28;20367;-56
2022/08/23 11:10:28;;;;;;;9.32;8.20;;;;;;;27.41;49.39;94568.19;5082245;28;20131;-54
2022/08/23 11:13:07;;;;;;;10.80;8.57;;;;;;;27.34;49.38;94563.44;5079899;28;20020;-54
2022/08/23 11:15:44;;;;;;;11.70;8.18;;;;;;;27.30;49.25;94563.78;5081302;28;20051;-53
2022/08/23 11:18:12;;;;;;;9.60;7.47;;;;;;;27.20;48.84;94542.91;5061509;28;20028;-54
2022/08/23 11:20:53;;;;;;;9.43;7.72;;;;;;;27.28;49.45;94560.84;5065677;28;20036;-53
2022/08/23 11:23:46;;;;;;;9.43;7.53;;;;;;;27.25;49.31;94558.47;5082583;28;20039;-55
2022/08/23 11:26:21;;;;;;;9.77;7.18;;;;;;;27.23;48.94;94558.28;5086846;28;20510;-55
2022/08/23 11:28:47;;;;;;;10.63;7.72;;;;;;;27.21;48.57;94549.88;5085691;28;20090;-53
2022/08/23 11:31:34;;;;;;;9.07;7.32;;;;;;;27.20;49.44;94553.88;5080429;28;20426;-54
2022/08/23 11:34:05;;;;;;;10.90;7.93;;;;;;;27.19;49.94;94563.41;5077014;28;20109;-54
2022/08/23 11:36:32;;;;;;;9.13;7.63;;;;;;;27.14;49.81;94556.06;5074597;28;20472;-52
2022/08/23 11:38:57;;;;;;;10.40;7.57;;;;;;;27.15;49.86;94545.84;5075079;28;20093;-53
2022/08/23 11:41:31;;;;;;;9.98;7.82;;;;;;;27.14;50.01;94556.06;5081268;28;20043;-54
2022/08/23 11:44:03;;;;;;;9.82;7.65;;;;;;;27.15;50.05;94543.84;5086256;28;20047;-52
2022/08/23 11:46:30;;;;;;;11.75;7.82;;;;;;;27.12;50.06;94547.66;5079430;28;20643;-52